createdAt,value
2018-06-20T00:00:03.112Z,0.00
2018-06-20T00:01:04.732Z,0.00
2018-06-20T00:02:03.370Z,0.00
2018-06-20T00:03:03.245Z,0.00
2018-06-20T00:04:03.538Z,0.00
2018-06-20T00:05:02.850Z,0.00
2018-06-20T00:06:03.646Z,0.00
2018-06-20T00:07:02.850Z,0.00
2018-06-20T00:08:03.273Z,0.00
2018-06-20T00:09:03.406Z,0.00
2018-06-20T00:10:03.263Z,0.00
2018-06-20T00:11:03.318Z,0.00
2018-06-20T00:12:03.535Z,0.00
2018-06-20T00:13:02.845Z,0.00
2018-06-20T00:14:03.246Z,0.00
2018-06-20T00:15:03.255Z,0.00
2018-06-20T00:16:03.249Z,0.00
2018-06-20T00:17:03.251Z,0.00
2018-06-20T00:18:03.634Z,0.00
2018-06-20T00:19:03.253Z,0.00
2018-06-20T00:20:03.694Z,0.00
2018-06-20T00:21:02.852Z,0.00
2018-06-20T00:22:03.200Z,0.00
2018-06-20T00:23:03.227Z,0.00
2018-06-20T00:24:03.209Z,0.00
2018-06-20T00:25:03.103Z,0.00
2018-06-20T00:26:03.182Z,0.00
2018-06-20T00:27:03.209Z,0.00
2018-06-20T00:28:03.220Z,0.00
2018-06-20T00:29:03.305Z,0.00
2018-06-20T00:30:03.664Z,0.00
2018-06-20T00:31:03.800Z,0.00
2018-06-20T00:32:02.881Z,0.00
2018-06-20T00:33:03.215Z,0.00
2018-06-20T00:34:03.192Z,0.00
2018-06-20T00:35:03.359Z,0.00
2018-06-20T00:36:03.435Z,0.00
2018-06-20T00:37:03.405Z,0.00
2018-06-20T00:38:03.188Z,0.00
2018-06-20T00:39:03.423Z,0.00
2018-06-20T00:40:03.262Z,0.00
2018-06-20T00:41:03.500Z,0.00
2018-06-20T00:42:02.886Z,0.00
2018-06-20T00:43:03.358Z,0.00
2018-06-20T00:44:03.436Z,0.00
2018-06-20T00:45:03.309Z,0.00
2018-06-20T00:46:03.308Z,0.00
2018-06-20T00:47:03.437Z,0.00
2018-06-20T00:48:03.419Z,0.00
2018-06-20T00:49:03.347Z,0.00
2018-06-20T00:50:03.491Z,0.00
2018-06-20T00:51:03.160Z,0.00
2018-06-20T00:52:03.093Z,0.00
2018-06-20T00:53:03.202Z,0.00
2018-06-20T00:54:03.216Z,0.00
2018-06-20T00:55:03.198Z,0.00
2018-06-20T00:56:03.191Z,0.00
2018-06-20T00:57:03.181Z,0.00
2018-06-20T00:58:03.229Z,0.00
2018-06-20T00:59:03.219Z,0.00
2018-06-20T01:00:03.378Z,0.00
2018-06-20T01:01:03.280Z,0.00
2018-06-20T01:02:03.138Z,0.00
2018-06-20T01:03:03.212Z,0.00
2018-06-20T01:04:03.216Z,0.00
2018-06-20T01:05:03.215Z,0.00
2018-06-20T01:06:03.230Z,0.00
2018-06-20T01:07:03.269Z,0.00
2018-06-20T01:08:03.286Z,0.00
2018-06-20T01:09:03.214Z,0.00
2018-06-20T01:10:03.306Z,0.00
2018-06-20T01:11:03.393Z,0.00
2018-06-20T01:12:03.405Z,0.00
2018-06-20T01:13:03.252Z,0.00
2018-06-20T01:14:03.221Z,0.00
2018-06-20T01:15:03.421Z,0.00
2018-06-20T01:16:03.437Z,0.00
2018-06-20T01:17:03.222Z,0.00
2018-06-20T01:18:03.453Z,0.00
2018-06-20T01:19:03.192Z,0.00
2018-06-20T01:20:03.434Z,0.00
2018-06-20T01:21:03.489Z,0.00
2018-06-20T01:22:03.172Z,0.00
2018-06-20T01:23:03.160Z,0.00
2018-06-20T01:24:03.198Z,0.00
2018-06-20T01:25:03.210Z,0.00
2018-06-20T01:26:03.355Z,0.00
2018-06-20T01:27:03.237Z,0.00
2018-06-20T01:28:03.405Z,0.00
2018-06-20T01:29:03.164Z,0.00
2018-06-20T01:30:03.233Z,0.00
2018-06-20T01:31:03.234Z,0.00
2018-06-20T01:32:03.139Z,0.00
2018-06-20T01:33:03.305Z,0.00
2018-06-20T01:34:03.219Z,0.00
2018-06-20T01:35:03.285Z,0.00
2018-06-20T01:36:03.242Z,0.00
2018-06-20T01:37:03.209Z,0.00
2018-06-20T01:38:03.251Z,0.00
2018-06-20T01:39:03.146Z,0.00
2018-06-20T01:40:03.826Z,0.00
2018-06-20T01:41:03.237Z,0.00
2018-06-20T01:42:03.234Z,0.00
2018-06-20T01:43:03.225Z,0.00
2018-06-20T01:44:03.273Z,0.00
2018-06-20T01:45:03.241Z,0.00
2018-06-20T01:46:03.256Z,0.00
2018-06-20T01:47:03.246Z,0.00
2018-06-20T01:48:03.249Z,0.00
2018-06-20T01:49:03.478Z,0.00
2018-06-20T01:50:05.229Z,0.00
2018-06-20T01:51:03.253Z,0.00
2018-06-20T01:52:03.289Z,0.00
2018-06-20T01:53:03.247Z,0.00
2018-06-20T01:54:03.235Z,0.00
2018-06-20T01:55:03.182Z,0.00
2018-06-20T01:56:03.171Z,0.00
2018-06-20T01:57:03.230Z,0.00
2018-06-20T01:58:03.092Z,0.00
2018-06-20T01:59:03.164Z,0.00
2018-06-20T02:00:03.148Z,0.00
2018-06-20T02:01:03.152Z,0.00
2018-06-20T02:02:03.199Z,0.00
2018-06-20T02:03:03.405Z,0.00
2018-06-20T02:04:03.331Z,0.00
2018-06-20T02:05:03.332Z,0.00
2018-06-20T02:06:03.451Z,0.00
2018-06-20T02:07:03.836Z,0.00
2018-06-20T02:08:03.316Z,0.00
2018-06-20T02:09:03.854Z,0.00
2018-06-20T02:10:03.354Z,0.00
2018-06-20T02:11:03.311Z,0.00
2018-06-20T02:12:03.307Z,0.00
2018-06-20T02:13:03.221Z,0.00
2018-06-20T02:14:03.170Z,0.00
2018-06-20T02:15:03.844Z,0.00
2018-06-20T02:16:03.421Z,0.00
2018-06-20T02:17:02.969Z,0.00
2018-06-20T02:18:03.312Z,0.00
2018-06-20T02:19:03.651Z,0.00
2018-06-20T02:20:03.348Z,0.00
2018-06-20T02:21:02.915Z,0.00
2018-06-20T02:22:03.258Z,0.00
2018-06-20T02:23:03.844Z,0.00
2018-06-20T02:24:03.237Z,0.00
2018-06-20T02:25:02.896Z,0.00
2018-06-20T02:26:03.303Z,0.00
2018-06-20T02:27:03.321Z,0.00
2018-06-20T02:28:03.315Z,0.00
2018-06-20T02:29:03.801Z,0.00
2018-06-20T02:30:03.307Z,0.00
2018-06-20T02:31:03.308Z,0.00
2018-06-20T02:32:03.307Z,0.00
2018-06-20T02:33:03.297Z,0.00
2018-06-20T02:34:03.297Z,0.00
2018-06-20T02:35:03.307Z,0.00
2018-06-20T02:36:03.271Z,0.00
2018-06-20T02:37:03.133Z,0.00
2018-06-20T02:38:03.324Z,0.00
2018-06-20T02:39:05.332Z,0.00
2018-06-20T02:40:03.165Z,0.00
2018-06-20T02:41:03.157Z,0.00
2018-06-20T02:42:03.143Z,0.00
2018-06-20T02:43:03.345Z,4.00
2018-06-20T02:44:03.826Z,4.00
2018-06-20T02:45:03.324Z,0.00
2018-06-20T02:46:03.310Z,0.00
2018-06-20T02:47:03.155Z,4.00
2018-06-20T02:48:03.188Z,4.00
2018-06-20T02:49:03.311Z,4.00
2018-06-20T02:50:03.214Z,4.00
2018-06-20T02:51:03.306Z,0.00
2018-06-20T02:52:03.310Z,4.00
2018-06-20T02:53:03.308Z,4.00
2018-06-20T02:54:03.312Z,8.00
2018-06-20T02:55:03.313Z,4.00
2018-06-20T02:56:03.238Z,8.00
2018-06-20T02:57:03.319Z,8.00
2018-06-20T02:58:03.310Z,8.00
2018-06-20T02:59:03.315Z,8.00
2018-06-20T03:00:03.305Z,12.00
2018-06-20T03:01:03.318Z,8.00
2018-06-20T03:02:03.307Z,8.00
2018-06-20T03:03:03.319Z,8.00
2018-06-20T03:04:03.888Z,12.00
2018-06-20T03:05:03.309Z,12.00
2018-06-20T03:06:03.214Z,16.00
2018-06-20T03:07:03.150Z,16.00
2018-06-20T03:08:03.184Z,16.00
2018-06-20T03:09:03.487Z,16.00
2018-06-20T03:10:03.334Z,20.00
2018-06-20T03:11:03.309Z,20.00
2018-06-20T03:12:03.407Z,20.00
2018-06-20T03:13:03.353Z,20.00
2018-06-20T03:14:03.384Z,28.00
2018-06-20T03:15:03.310Z,28.00
2018-06-20T03:16:03.668Z,32.00
2018-06-20T03:17:03.342Z,32.00
2018-06-20T03:18:03.211Z,36.00
2018-06-20T03:19:03.169Z,40.00
2018-06-20T03:20:03.177Z,40.00
2018-06-20T03:21:03.239Z,44.00
2018-06-20T03:22:03.214Z,48.00
2018-06-20T03:23:03.267Z,44.00
2018-06-20T03:24:03.324Z,48.00
2018-06-20T03:25:03.320Z,48.00
2018-06-20T03:26:03.229Z,56.00
2018-06-20T03:27:03.340Z,60.00
2018-06-20T03:28:03.830Z,64.00
2018-06-20T03:29:03.317Z,68.00
2018-06-20T03:30:03.376Z,68.00
2018-06-20T03:31:03.470Z,72.00
2018-06-20T03:32:03.238Z,76.00
2018-06-20T03:33:03.328Z,76.00
2018-06-20T03:34:03.252Z,76.00
2018-06-20T03:35:05.170Z,76.00
2018-06-20T03:36:03.203Z,76.00
2018-06-20T03:37:02.937Z,80.00
2018-06-20T03:38:03.282Z,88.00
2018-06-20T03:39:03.345Z,96.00
2018-06-20T03:41:03.221Z,108.00
2018-06-20T03:42:03.320Z,104.00
2018-06-20T03:43:03.220Z,104.00
2018-06-20T03:44:03.425Z,108.00
2018-06-20T03:45:03.658Z,116.00
2018-06-20T03:46:03.343Z,120.00
2018-06-20T03:48:04.000Z,124.00
2018-06-20T03:49:03.292Z,136.00
2018-06-20T03:50:03.373Z,148.00
2018-06-20T03:51:03.811Z,164.00
2018-06-20T03:52:02.926Z,172.00
2018-06-20T03:53:03.645Z,180.00
2018-06-20T03:54:02.914Z,176.00
2018-06-20T03:55:03.620Z,188.00
2018-06-20T03:56:02.858Z,204.00
2018-06-20T03:57:03.418Z,220.00
2018-06-20T03:58:05.214Z,232.00
2018-06-20T03:59:03.428Z,236.00
2018-06-20T04:00:03.875Z,236.00
2018-06-20T04:01:02.927Z,252.00
2018-06-20T04:02:03.491Z,264.00
2018-06-20T04:03:03.873Z,268.00
2018-06-20T04:04:03.336Z,268.00
2018-06-20T04:05:03.054Z,276.00
2018-06-20T04:06:03.167Z,288.00
2018-06-20T04:07:03.387Z,296.00
2018-06-20T04:08:03.165Z,300.00
2018-06-20T04:09:03.241Z,304.00
2018-06-20T04:10:03.211Z,320.00
2018-06-20T04:11:03.272Z,324.00
2018-06-20T04:12:03.275Z,324.00
2018-06-20T04:13:03.295Z,312.00
2018-06-20T04:14:03.307Z,308.00
2018-06-20T04:15:05.053Z,308.00
2018-06-20T04:16:03.302Z,304.00
2018-06-20T04:17:03.267Z,312.00
2018-06-20T04:18:03.294Z,316.00
2018-06-20T04:19:03.210Z,332.00
2018-06-20T04:20:03.110Z,356.00
2018-06-20T04:21:03.146Z,372.00
2018-06-20T04:22:03.202Z,384.00
2018-06-20T04:23:03.251Z,404.00
2018-06-20T04:24:03.242Z,440.00
2018-06-20T04:25:03.209Z,480.00
2018-06-20T04:26:03.250Z,536.00
2018-06-20T04:27:03.252Z,580.00
2018-06-20T04:28:03.312Z,632.00
2018-06-20T04:29:03.838Z,680.00
2018-06-20T04:30:03.277Z,728.00
2018-06-20T04:31:03.343Z,756.00
2018-06-20T04:32:03.281Z,784.00
2018-06-20T04:33:03.267Z,820.00
2018-06-20T04:34:03.320Z,844.00
2018-06-20T04:35:03.305Z,880.00
2018-06-20T04:36:03.288Z,912.00
2018-06-20T04:37:03.230Z,940.00
2018-06-20T04:38:03.282Z,956.00
2018-06-20T04:39:03.309Z,984.00
2018-06-20T04:40:03.284Z,1008.00
2018-06-20T04:41:03.187Z,1040.00
2018-06-20T04:42:03.159Z,1076.00
2018-06-20T04:43:03.121Z,1084.00
2018-06-20T04:44:03.134Z,1104.00
2018-06-20T04:45:03.148Z,1120.00
2018-06-20T04:46:03.131Z,1132.00
2018-06-20T04:47:03.213Z,1152.00
2018-06-20T04:48:03.168Z,1160.00
2018-06-20T04:49:03.161Z,1176.00
2018-06-20T04:50:03.169Z,1188.00
2018-06-20T04:51:03.262Z,1208.00
2018-06-20T04:52:05.341Z,1228.00
2018-06-20T04:53:03.289Z,1256.00
2018-06-20T04:54:03.307Z,1292.00
2018-06-20T04:55:03.725Z,1312.00
2018-06-20T04:56:03.865Z,1312.00
2018-06-20T04:57:03.707Z,1324.00
2018-06-20T04:58:04.917Z,1312.00
2018-06-20T04:59:02.778Z,1336.00
2018-06-20T05:00:03.373Z,1372.00
2018-06-20T05:01:03.084Z,1420.00
2018-06-20T05:02:03.259Z,1436.00
2018-06-20T05:03:03.215Z,1456.00
2018-06-20T05:04:03.355Z,1496.00
2018-06-20T05:05:03.637Z,1524.00
2018-06-20T05:06:02.880Z,1560.00
2018-06-20T05:07:03.161Z,1584.00
2018-06-20T05:08:03.192Z,1552.00
2018-06-20T05:09:03.209Z,1580.00
2018-06-20T05:10:03.497Z,1588.00
2018-06-20T05:11:03.376Z,1604.00
2018-06-20T05:12:05.642Z,1664.00
2018-06-20T05:13:03.272Z,1636.00
2018-06-20T05:14:03.728Z,1684.00
2018-06-20T05:15:03.449Z,1704.00
2018-06-20T05:16:03.279Z,1752.00
2018-06-20T05:17:03.355Z,1776.00
2018-06-20T05:18:03.208Z,1860.00
2018-06-20T05:19:03.124Z,1840.00
2018-06-20T05:20:03.212Z,1888.00
2018-06-20T05:21:03.237Z,1896.00
2018-06-20T05:22:03.262Z,1852.00
2018-06-20T05:23:03.335Z,1812.00
2018-06-20T05:24:03.731Z,1788.00
2018-06-20T05:25:03.958Z,1780.00
2018-06-20T05:26:05.229Z,1812.00
2018-06-20T05:27:03.993Z,1832.00
2018-06-20T05:28:03.966Z,1808.00
2018-06-20T05:29:03.686Z,1836.00
2018-06-20T05:30:03.418Z,1804.00
2018-06-20T05:31:03.325Z,1832.00
2018-06-20T05:32:03.481Z,1928.00
2018-06-20T05:33:05.935Z,1976.00
2018-06-20T05:34:03.416Z,2016.00
2018-06-20T05:35:03.420Z,2096.00
2018-06-20T05:36:03.729Z,2092.00
2018-06-20T05:37:03.419Z,2156.00
2018-06-20T05:38:03.413Z,2176.00
2018-06-20T05:39:03.846Z,2144.00
2018-06-20T05:40:03.370Z,2192.00
2018-06-20T05:41:03.729Z,2196.00
2018-06-20T05:42:03.390Z,2244.00
2018-06-20T05:43:03.922Z,2364.00
2018-06-20T05:44:03.375Z,2524.00
2018-06-20T05:45:03.918Z,2712.00
2018-06-20T05:46:03.302Z,2800.00
2018-06-20T05:47:03.735Z,2880.00
2018-06-20T05:48:03.404Z,2968.00
2018-06-20T05:49:03.739Z,3008.00
2018-06-20T05:50:03.415Z,3072.00
2018-06-20T05:51:02.961Z,3016.00
2018-06-20T05:52:03.733Z,2968.00
2018-06-20T05:53:03.417Z,3096.00
2018-06-20T05:54:03.437Z,3060.00
2018-06-20T05:55:03.426Z,2916.00
2018-06-20T05:56:03.157Z,2884.00
2018-06-20T05:57:03.228Z,2840.00
2018-06-20T05:58:03.715Z,2816.00
2018-06-20T05:59:03.309Z,2896.00
2018-06-20T06:00:02.968Z,2856.00
2018-06-20T06:01:04.600Z,2796.00
2018-06-20T06:02:03.390Z,2792.00
2018-06-20T06:03:05.088Z,2812.00
2018-06-20T06:04:04.042Z,2804.00
2018-06-20T06:05:04.829Z,2632.00
2018-06-20T06:06:03.348Z,2604.00
2018-06-20T06:07:04.587Z,2612.00
2018-06-20T06:08:03.247Z,2592.00
2018-06-20T06:09:03.273Z,2572.00
2018-06-20T06:10:03.406Z,2552.00
2018-06-20T06:11:03.308Z,2536.00
2018-06-20T06:12:03.327Z,2544.00
2018-06-20T06:13:03.314Z,2516.00
2018-06-20T06:14:03.322Z,2468.00
2018-06-20T06:15:05.011Z,2464.00
2018-06-20T06:16:03.325Z,2384.00
2018-06-20T06:17:03.504Z,2392.00
2018-06-20T06:18:03.387Z,2468.00
2018-06-20T06:19:03.406Z,2576.00
2018-06-20T06:20:03.234Z,2656.00
2018-06-20T06:21:03.430Z,2772.00
2018-06-20T06:22:03.612Z,2848.00
2018-06-20T06:23:03.931Z,2876.00
2018-06-20T06:24:03.200Z,2864.00
2018-06-20T06:25:02.921Z,2932.00
2018-06-20T06:26:06.033Z,3032.00
2018-06-20T06:27:03.720Z,3040.00
2018-06-20T06:28:03.441Z,3008.00
2018-06-20T06:29:04.244Z,3008.00
2018-06-20T06:30:03.601Z,3012.00
2018-06-20T06:31:03.378Z,3016.00
2018-06-20T06:32:03.434Z,3128.00
2018-06-20T06:33:05.239Z,3088.00
2018-06-20T06:34:02.931Z,2956.00
2018-06-20T06:35:03.181Z,2916.00
2018-06-20T06:36:03.386Z,2960.00
2018-06-20T06:37:03.504Z,2984.00
2018-06-20T06:38:05.393Z,2800.00
2018-06-20T06:39:03.563Z,2560.00
2018-06-20T06:40:03.406Z,2348.00
2018-06-20T06:41:03.954Z,2268.00
2018-06-20T06:42:03.283Z,2280.00
2018-06-20T06:43:03.598Z,2436.00
2018-06-20T06:44:03.057Z,2596.00
2018-06-20T06:45:03.966Z,2616.00
2018-06-20T06:46:04.088Z,2740.00
2018-06-20T06:47:03.426Z,2768.00
2018-06-20T06:48:04.056Z,2528.00
2018-06-20T06:49:04.973Z,2380.00
2018-06-20T06:50:04.037Z,2300.00
2018-06-20T06:51:03.048Z,2312.00
2018-06-20T06:52:03.478Z,2400.00
2018-06-20T06:53:03.657Z,2616.00
2018-06-20T06:54:03.439Z,2984.00
2018-06-20T06:55:03.278Z,3304.00
2018-06-20T06:56:03.457Z,3664.00
2018-06-20T06:57:03.750Z,3688.00
2018-06-20T06:58:03.911Z,3592.00
2018-06-20T06:59:05.896Z,3628.00
2018-06-20T07:00:03.018Z,3696.00
2018-06-20T07:01:03.832Z,3748.00
2018-06-20T07:02:03.300Z,3900.00
2018-06-20T07:03:03.771Z,3800.00
2018-06-20T07:04:03.449Z,3724.00
2018-06-20T07:05:03.470Z,3836.00
2018-06-20T07:06:03.557Z,3868.00
2018-06-20T07:07:03.470Z,3848.00
2018-06-20T07:08:03.469Z,3808.00
2018-06-20T07:09:03.378Z,3800.00
2018-06-20T07:10:03.341Z,3748.00
2018-06-20T07:11:04.233Z,3832.00
2018-06-20T07:12:03.944Z,4068.00
2018-06-20T07:13:03.487Z,4072.00
2018-06-20T07:14:03.486Z,4024.00
2018-06-20T07:15:03.401Z,3980.00
2018-06-20T07:16:04.066Z,4228.00
2018-06-20T07:17:04.045Z,4288.00
2018-06-20T07:18:05.236Z,4200.00
2018-06-20T07:19:05.105Z,4196.00
2018-06-20T07:20:03.554Z,4328.00
2018-06-20T07:21:03.325Z,4152.00
2018-06-20T07:22:03.934Z,4152.00
2018-06-20T07:23:03.077Z,4404.00
2018-06-20T07:24:03.482Z,4356.00
2018-06-20T07:25:03.613Z,4236.00
2018-06-20T07:26:03.946Z,4020.00
2018-06-20T07:27:03.051Z,3708.00
2018-06-20T07:28:03.413Z,3704.00
2018-06-20T07:29:03.753Z,3584.00
2018-06-20T07:30:03.692Z,3248.00
2018-06-20T07:31:03.752Z,3492.00
2018-06-20T07:32:03.977Z,3484.00
2018-06-20T07:33:03.982Z,3700.00
2018-06-20T07:34:04.020Z,3996.00
2018-06-20T07:35:03.959Z,3904.00
2018-06-20T07:36:03.330Z,3728.00
2018-06-20T07:37:03.292Z,3548.00
2018-06-20T07:38:03.655Z,3828.00
2018-06-20T07:39:03.002Z,4132.00
2018-06-20T07:40:03.414Z,4180.00
2018-06-20T07:41:03.767Z,4288.00
2018-06-20T07:42:03.543Z,4644.00
2018-06-20T07:43:03.604Z,5036.00
2018-06-20T07:44:04.255Z,5532.00
2018-06-20T07:45:03.808Z,5980.00
2018-06-20T07:46:03.957Z,5600.00
2018-06-20T07:47:03.413Z,5296.00
2018-06-20T07:48:03.849Z,5532.00
2018-06-20T07:49:03.890Z,5824.00
2018-06-20T07:50:03.423Z,5940.00
2018-06-20T07:51:03.415Z,6336.00
2018-06-20T07:52:03.956Z,6152.00
2018-06-20T07:53:06.378Z,5544.00
2018-06-20T07:54:03.196Z,4196.00
2018-06-20T07:55:03.931Z,3072.00
2018-06-20T07:56:03.577Z,2516.00
2018-06-20T07:57:05.232Z,2636.00
2018-06-20T07:58:05.489Z,2900.00
2018-06-20T07:59:03.003Z,2948.00
2018-06-20T08:00:04.378Z,2888.00
2018-06-20T08:01:03.729Z,3124.00
2018-06-20T08:02:03.463Z,3580.00
2018-06-20T08:03:03.862Z,4328.00
2018-06-20T08:04:03.763Z,4372.00
2018-06-20T08:05:03.547Z,4172.00
2018-06-20T08:06:04.407Z,3988.00
2018-06-20T08:07:03.800Z,3980.00
2018-06-20T08:08:04.346Z,4380.00
2018-06-20T08:09:03.972Z,4504.00
2018-06-20T08:10:03.841Z,4568.00
2018-06-20T08:11:04.011Z,4944.00
2018-06-20T08:12:03.925Z,5200.00
2018-06-20T08:13:03.977Z,5368.00
2018-06-20T08:14:04.510Z,5328.00
2018-06-20T08:15:03.072Z,5288.00
2018-06-20T08:16:03.972Z,5344.00
2018-06-20T08:17:04.273Z,5580.00
2018-06-20T08:18:04.013Z,5780.00
2018-06-20T08:19:03.929Z,5908.00
2018-06-20T08:20:03.692Z,6036.00
2018-06-20T08:21:03.995Z,6104.00
2018-06-20T08:22:03.432Z,6020.00
2018-06-20T08:23:04.497Z,6076.00
2018-06-20T08:24:03.442Z,6232.00
2018-06-20T08:25:03.969Z,6292.00
2018-06-20T08:26:03.499Z,6304.00
2018-06-20T08:27:03.477Z,6216.00
2018-06-20T08:28:03.973Z,5960.00
2018-06-20T08:29:04.010Z,5700.00
2018-06-20T08:30:04.475Z,5524.00
2018-06-20T08:31:04.479Z,5468.00
2018-06-20T08:32:03.465Z,5144.00
2018-06-20T08:33:03.084Z,4868.00
2018-06-20T08:34:03.490Z,4760.00
2018-06-20T08:35:04.261Z,4724.00
2018-06-20T08:36:04.320Z,4724.00
2018-06-20T08:37:04.361Z,5052.00
2018-06-20T08:38:03.484Z,5784.00
2018-06-20T08:39:03.479Z,5988.00
2018-06-20T08:40:03.492Z,5668.00
2018-06-20T08:41:03.491Z,5544.00
2018-06-20T08:42:03.977Z,5308.00
2018-06-20T08:43:03.477Z,5180.00
2018-06-20T08:44:03.526Z,5408.00
2018-06-20T08:45:03.532Z,5260.00
2018-06-20T08:46:04.023Z,5388.00
2018-06-20T08:47:03.945Z,5628.00
2018-06-20T08:48:03.945Z,5256.00
2018-06-20T08:49:04.296Z,4884.00
2018-06-20T08:50:04.328Z,5840.00
2018-06-20T08:51:04.424Z,6208.00
2018-06-20T08:52:04.219Z,7452.00
2018-06-20T08:53:04.072Z,6544.00
2018-06-20T08:54:03.757Z,5340.00
2018-06-20T08:55:03.769Z,4128.00
2018-06-20T08:56:04.012Z,3320.00
2018-06-20T08:57:06.019Z,2880.00
2018-06-20T08:58:04.448Z,2520.00
2018-06-20T08:59:03.988Z,2152.00
2018-06-20T09:00:03.692Z,1788.00
2018-06-20T09:01:03.739Z,1640.00
2018-06-20T09:02:03.845Z,1588.00
2018-06-20T09:03:03.198Z,1632.00
2018-06-20T09:04:04.335Z,1900.00
2018-06-20T09:05:03.981Z,2656.00
2018-06-20T09:06:03.997Z,3788.00
2018-06-20T09:07:03.725Z,4476.00
2018-06-20T09:08:03.827Z,4756.00
2018-06-20T09:09:04.039Z,4940.00
2018-06-20T09:10:03.496Z,4644.00
2018-06-20T09:11:03.957Z,4560.00
2018-06-20T09:12:04.014Z,4876.00
2018-06-20T09:13:04.382Z,5676.00
2018-06-20T09:14:04.043Z,6620.00
2018-06-20T09:15:03.459Z,7136.00
2018-06-20T09:16:03.712Z,7264.00
2018-06-20T09:17:05.567Z,6988.00
2018-06-20T09:18:03.532Z,7028.00
2018-06-20T09:19:04.058Z,6608.00
2018-06-20T09:20:03.449Z,6664.00
2018-06-20T09:21:04.035Z,7348.00
2018-06-20T09:22:04.564Z,7716.00
2018-06-20T09:23:03.543Z,7576.00
2018-06-20T09:24:03.947Z,7264.00
2018-06-20T09:25:03.499Z,8036.00
2018-06-20T09:26:03.624Z,7752.00
2018-06-20T09:27:03.667Z,7520.00
2018-06-20T09:28:03.677Z,6912.00
2018-06-20T09:29:04.088Z,6492.00
2018-06-20T09:30:04.020Z,5872.00
2018-06-20T09:31:04.036Z,5536.00
2018-06-20T09:32:06.089Z,5108.00
2018-06-20T09:34:03.847Z,4904.00
2018-06-20T09:35:06.063Z,6032.00
2018-06-20T09:36:09.976Z,7112.00
2018-06-20T09:37:04.522Z,7632.00
2018-06-20T09:38:04.000Z,7568.00
2018-06-20T09:39:03.541Z,7540.00
2018-06-20T09:40:03.514Z,7260.00
2018-06-20T09:41:04.009Z,6820.00
2018-06-20T09:42:03.825Z,6408.00
2018-06-20T09:43:04.341Z,7796.00
2018-06-20T09:44:04.056Z,9084.00
2018-06-20T09:45:04.059Z,9304.00
2018-06-20T09:46:04.377Z,8540.00
2018-06-20T09:47:03.584Z,8136.00
2018-06-20T09:48:04.314Z,7592.00
2018-06-20T09:49:03.521Z,6852.00
2018-06-20T09:50:03.808Z,6304.00
2018-06-20T09:51:03.354Z,5972.00
2018-06-20T09:52:03.771Z,6000.00
2018-06-20T09:53:04.319Z,6076.00
2018-06-20T09:54:03.789Z,6104.00
2018-06-20T09:55:04.214Z,5756.00
2018-06-20T09:56:04.090Z,5624.00
2018-06-20T09:57:03.782Z,6008.00
2018-06-20T09:58:04.034Z,6468.00
2018-06-20T09:59:05.068Z,6876.00
2018-06-20T10:00:03.741Z,7096.00
2018-06-20T10:01:03.745Z,6500.00
2018-06-20T10:02:04.373Z,6088.00
2018-06-20T10:03:04.016Z,6128.00
2018-06-20T10:04:04.300Z,6616.00
2018-06-20T10:05:09.980Z,7732.00
2018-06-20T10:06:03.981Z,8320.00
2018-06-20T10:07:04.064Z,9088.00
2018-06-20T10:08:03.974Z,9324.00
2018-06-20T10:09:04.397Z,9240.00
2018-06-20T10:10:04.060Z,9444.00
2018-06-20T10:11:04.348Z,9328.00
2018-06-20T10:12:03.862Z,8656.00
2018-06-20T10:13:03.495Z,7832.00
2018-06-20T10:14:04.073Z,7788.00
2018-06-20T10:15:04.365Z,8184.00
2018-06-20T10:16:03.589Z,8840.00
2018-06-20T10:17:03.854Z,9196.00
2018-06-20T10:18:04.024Z,9076.00
2018-06-20T10:19:03.475Z,9332.00
2018-06-20T10:20:03.850Z,9952.00
2018-06-20T10:21:04.373Z,10208.00
2018-06-20T10:22:04.133Z,10220.00
2018-06-20T10:23:03.754Z,10232.00
2018-06-20T10:24:04.528Z,9760.00
2018-06-20T10:25:04.023Z,9364.00
2018-06-20T10:26:04.363Z,8976.00
2018-06-20T10:27:04.860Z,8700.00
2018-06-20T10:28:03.488Z,7992.00
2018-06-20T10:29:03.794Z,8036.00
2018-06-20T10:30:04.031Z,7768.00
2018-06-20T10:31:04.023Z,6976.00
2018-06-20T10:32:06.554Z,5800.00
2018-06-20T10:33:03.844Z,5984.00
2018-06-20T10:34:03.912Z,6084.00
2018-06-20T10:35:04.990Z,6024.00
2018-06-20T10:36:03.964Z,5800.00
2018-06-20T10:37:04.087Z,5776.00
2018-06-20T10:38:04.036Z,7164.00
2018-06-20T10:39:03.725Z,7032.00
2018-06-20T10:40:04.098Z,5904.00
2018-06-20T10:41:03.648Z,5840.00
2018-06-20T10:42:04.045Z,7024.00
2018-06-20T10:43:04.510Z,8956.00
2018-06-20T10:44:03.848Z,9620.00
2018-06-20T10:45:04.161Z,10272.00
2018-06-20T10:46:04.299Z,9964.00
2018-06-20T10:47:06.080Z,8912.00
2018-06-20T10:48:03.873Z,9272.00
2018-06-20T10:49:03.942Z,9692.00
2018-06-20T10:50:04.503Z,9568.00
2018-06-20T10:51:03.652Z,10264.00
2018-06-20T10:52:04.490Z,9104.00
2018-06-20T10:53:05.070Z,9320.00
2018-06-20T10:54:04.554Z,10724.00
2018-06-20T10:55:03.933Z,8960.00
2018-06-20T10:56:04.256Z,6924.00
2018-06-20T10:57:03.928Z,5616.00
2018-06-20T10:58:03.935Z,5516.00
2018-06-20T10:59:04.367Z,5932.00
2018-06-20T11:00:04.327Z,7372.00
2018-06-20T11:01:04.345Z,7312.00
2018-06-20T11:02:04.379Z,8432.00
2018-06-20T11:03:04.039Z,8468.00
2018-06-20T11:04:04.081Z,8996.00
2018-06-20T11:05:05.808Z,7520.00
2018-06-20T11:06:04.556Z,7364.00
2018-06-20T11:07:03.910Z,8236.00
2018-06-20T11:08:05.856Z,8684.00
2018-06-20T11:09:04.011Z,9120.00
2018-06-20T11:10:05.580Z,8540.00
2018-06-20T11:11:04.061Z,7400.00
2018-06-20T11:12:04.573Z,6980.00
2018-06-20T11:13:04.380Z,6764.00
2018-06-20T11:14:04.537Z,7144.00
2018-06-20T11:15:04.167Z,7492.00
2018-06-20T11:16:04.079Z,7900.00
2018-06-20T11:17:07.006Z,8968.00
2018-06-20T11:18:03.552Z,8820.00
2018-06-20T11:19:06.190Z,7280.00
2018-06-20T11:20:04.327Z,7556.00
2018-06-20T11:21:04.020Z,8716.00
2018-06-20T11:22:04.106Z,9396.00
2018-06-20T11:23:04.383Z,11728.00
2018-06-20T11:24:04.401Z,12768.00
2018-06-20T11:25:04.442Z,12012.00
2018-06-20T11:26:06.108Z,11264.00
2018-06-20T11:27:06.120Z,9692.00
2018-06-20T11:28:04.059Z,10332.00
2018-06-20T11:29:04.080Z,10876.00
2018-06-20T11:30:05.443Z,9284.00
2018-06-20T11:31:03.716Z,9748.00
2018-06-20T11:32:04.066Z,11100.00
2018-06-20T11:33:03.675Z,10496.00
2018-06-20T11:34:04.252Z,10844.00
2018-06-20T11:35:06.125Z,11292.00
2018-06-20T11:36:06.012Z,10728.00
2018-06-20T11:37:04.570Z,11876.00
2018-06-20T11:38:04.260Z,11008.00
2018-06-20T11:39:06.522Z,8988.00
2018-06-20T11:40:04.721Z,9700.00
2018-06-20T11:41:06.646Z,9580.00
2018-06-20T11:42:04.264Z,10064.00
2018-06-20T11:43:04.124Z,10736.00
2018-06-20T11:44:04.576Z,10688.00
2018-06-20T11:45:04.872Z,12012.00
2018-06-20T11:46:04.002Z,12740.00
2018-06-20T11:47:03.771Z,12260.00
2018-06-20T11:48:04.323Z,12864.00
2018-06-20T11:49:04.377Z,12136.00
2018-06-20T11:50:04.475Z,11464.00
2018-06-20T11:51:04.358Z,10976.00
2018-06-20T11:52:04.094Z,9548.00
2018-06-20T11:53:04.534Z,9800.00
2018-06-20T11:54:06.570Z,9612.00
2018-06-20T11:55:04.479Z,10408.00
2018-06-20T11:56:05.023Z,10768.00
2018-06-20T11:57:04.562Z,11564.00
2018-06-20T11:58:05.146Z,13584.00
2018-06-20T11:59:04.110Z,11588.00
2018-06-20T12:00:03.824Z,10984.00
2018-06-20T12:01:04.631Z,11240.00
2018-06-20T12:02:04.030Z,11248.00
2018-06-20T12:03:08.493Z,11816.00
2018-06-20T12:04:04.633Z,10936.00
2018-06-20T12:05:04.073Z,10424.00
2018-06-20T12:06:04.332Z,11844.00
2018-06-20T12:07:04.602Z,12348.00
2018-06-20T12:08:06.716Z,12448.00
2018-06-20T12:09:06.981Z,10940.00
2018-06-20T12:10:04.372Z,10420.00
2018-06-20T12:11:03.748Z,11176.00
2018-06-20T12:12:04.931Z,11056.00
2018-06-20T12:13:04.914Z,10576.00
2018-06-20T12:14:04.342Z,9584.00
2018-06-20T12:15:05.183Z,9400.00
2018-06-20T12:16:05.008Z,10040.00
2018-06-20T12:17:04.116Z,10276.00
2018-06-20T12:18:04.086Z,10468.00
2018-06-20T12:19:04.542Z,10732.00
2018-06-20T12:20:04.382Z,10352.00
2018-06-20T12:21:04.666Z,11596.00
2018-06-20T12:22:04.698Z,10984.00
2018-06-20T12:23:04.424Z,10536.00
2018-06-20T12:24:05.012Z,11288.00
2018-06-20T12:25:04.411Z,12368.00
2018-06-20T12:26:05.186Z,13056.00
2018-06-20T12:27:04.475Z,13196.00